Bookmark and Share
Track history (hours):
 

F/V Jeremi Simon

Last reported at 2014-Apr-23 12:33 UTC. Time now 2014-Apr-24 04:16 UTC.
Position N 46°11' W 001°53'.

Length 20 m.

Type: Other ship. MMSI: 227415000.

NotesDate/timePositionNaut miles runAvg speedWind from/ knotsBaromVisibWave heightAir tempDewpointWater temp
2014-Apr-23 12:33N 46°11' W 001°53'9 9.2
2014-Apr-23 11:33N 46°20' W 001°51'9 9.2
2014-Apr-23 10:33N 46°28' W 001°47'1 1.4
2014-Apr-23 09:33N 46°30' W 001°47'0 0.0
2014-Apr-23 08:33N 46°30' W 001°47'1 0.5
2014-Apr-23 07:33N 46°29' W 001°48'7 6.9
2014-Apr-23 06:33N 46°29' W 001°58'9 9.1
2014-Apr-23 05:32N 46°31' W 002°11'  
2014-Apr-19 06:12N 46°44' W 002°13'6 9.4
2014-Apr-19 05:33N 46°42' W 002°05'6 5.8
2014-Apr-19 04:33N 46°42' W 001°57'0 0.0
2014-Apr-17 15:09N 46°42' W 001°57'0 0.1
2014-Apr-17 14:33N 46°42' W 001°56'0 0.5
2014-Apr-17 13:33N 46°42' W 001°57'2 2.4
2014-Apr-17 12:33N 46°40' W 001°59'3 2.6
2014-Apr-17 11:33N 46°37' W 002°01'9 9.4
2014-Apr-17 10:33N 46°29' W 002°08'9 8.6
2014-Apr-17 09:33N 46°22' W 002°15'8 8.0
2014-Apr-17 08:33N 46°15' W 002°20'8 7.7
2014-Apr-17 07:33N 46°08' W 002°26'5 4.7
2014-Apr-17 06:26N 46°04' W 002°30'8 3.4
2014-Apr-17 04:05N 45°56' W 002°29'  

Dump ship's entire track history

sailing weather and tide predictions

F/V Jeremi Simon — FHAF — position and weather